»·PEaware :: N287MC KSNA-KONT

N287MC :: KSNA-KONT

FLIGHT INFORMATION

Flight Status: Arrived
Operator: Privately registered:
United States
More flights under this callsign
Pilot: Sanjiv S. (4490)
Aircraft: PIPER PA-28R-201 ARROW
(P28R)
More flights by this aircraft type
Origin: KSNA John Wayne-Orange Co
United States
Destination: KONT Ontario Intl
United States
More flights between these airports :: More routes between these airports
Route: VPLSA
File this flight plan on PilotEdge
Remarks:
Altitude:
(Current/Filed)
3,500ft
Speed:
(Current/Filed)
130kts
Departed: 23-Jul-18 09:53 AM
Arrived: 23-Jul-18 10:15 AM
Distance/Time
Traveled:
26nm/0:22
Distance/Time
To Go:
Arrived

Flight Plot

Page will automatically refresh every two minutes.


Map Options




Map Legend


Flown Route
Filed Route
Departure Airport
Arrival Airport
Navaid (VOR, NDB)
Fix

Horizontal Profiles

Position Reports

Time Latitude Longitude Heading Altitude Ground
Speed
23-Jul-18 09:26 33.670989 -117.867954 34 59ft 0kts
23-Jul-18 09:27 33.670989 -117.867954 34 59ft 0kts
23-Jul-18 09:28 33.670989 -117.867954 34 59ft 0kts
23-Jul-18 09:29 33.670989 -117.867954 34 59ft 0kts
23-Jul-18 09:30 33.670989 -117.867954 34 59ft 0kts
23-Jul-18 09:31 33.670989 -117.867954 34 59ft 0kts
23-Jul-18 09:32 33.670989 -117.867954 34 59ft 0kts
23-Jul-18 09:33 33.670989 -117.867954 34 59ft 0kts
23-Jul-18 09:34 33.670989 -117.867954 34 59ft 0kts
23-Jul-18 09:35 33.670989 -117.867954 34 59ft 0kts
23-Jul-18 09:36 33.670989 -117.867954 34 59ft 0kts
23-Jul-18 09:41 33.670989 -117.867954 34 59ft 0kts
23-Jul-18 09:42 33.670989 -117.867954 34 59ft 0kts
23-Jul-18 09:43 33.670989 -117.867954 34 59ft 0kts
23-Jul-18 09:44 33.670989 -117.867954 34 59ft 0kts
23-Jul-18 09:45 33.670989 -117.867954 34 59ft 0kts
23-Jul-18 09:46 33.671189 -117.868002 335 59ft 2kts
23-Jul-18 09:47 33.672368 -117.867952 29 59ft 9kts
23-Jul-18 09:48 33.674421 -117.866865 27 59ft 10kts
23-Jul-18 09:49 33.677499 -117.864911 27 59ft 11kts
23-Jul-18 09:50 33.679959 -117.863638 297 59ft 2kts
23-Jul-18 09:51 33.679960 -117.863640 296 59ft 0kts
23-Jul-18 09:52 33.679960 -117.863640 296 59ft 0kts
23-Jul-18 09:53 33.680123 -117.864047 282 59ft 4kts
23-Jul-18 09:54 33.667727 -117.871770 223 471ft 83kts
23-Jul-18 09:55 33.673200 -117.868659 119 1625ft 89kts
23-Jul-18 09:56 33.658638 -117.843314 130 2547ft 94kts
23-Jul-18 09:57 33.640918 -117.827201 242 2587ft 121kts
23-Jul-18 09:58 33.665184 -117.844625 340 2397ft 112kts
23-Jul-18 09:59 33.695135 -117.856435 336 2515ft 118kts
23-Jul-18 10:00 33.726306 -117.870376 340 2546ft 121kts
23-Jul-18 10:01 33.758518 -117.883367 337 2518ft 124kts
23-Jul-18 10:02 33.786755 -117.870263 55 2893ft 125kts
23-Jul-18 10:03 33.810803 -117.841622 62 3346ft 126kts
23-Jul-18 10:04 33.828358 -117.805164 61 3540ft 131kts
23-Jul-18 10:05 33.844031 -117.767065 61 3533ft 130kts
23-Jul-18 10:06 33.861489 -117.729591 56 3487ft 129kts
23-Jul-18 10:07 33.881174 -117.693652 50 3430ft 129kts
23-Jul-18 10:08 33.910427 -117.673030 19 3529ft 125kts
23-Jul-18 10:09 33.942151 -117.659377 21 3553ft 126kts
23-Jul-18 10:10 33.971993 -117.644708 18 3603ft 127kts
23-Jul-18 10:11 34.003334 -117.633611 16 3118ft 124kts
23-Jul-18 10:12 34.024057 -117.607427 81 1929ft 117kts
23-Jul-18 10:13 34.025315 -117.573256 85 1707ft 98kts
23-Jul-18 10:14 34.044052 -117.561002 354 1469ft 90kts
23-Jul-18 10:15 34.054939 -117.579714 267 989ft 76kts
23-Jul-18 10:16 34.054885 -117.592628 255 918ft 13kts
23-Jul-18 10:17 34.053863 -117.595593 271 914ft 11kts
23-Jul-18 10:18 34.053841 -117.599082 266 914ft 9kts
23-Jul-18 10:19 34.052819 -117.601794 129 911ft 14kts
23-Jul-18 10:20 34.052581 -117.600700 43 909ft 0kts
23-Jul-18 10:21 34.052581 -117.600700 43 909ft 0kts

Navigation Log

Ident Type
Flight plan parsing failed, navigation log unavailable